Time;durP1;ratioP1;P1;durP2;ratioP2;P2;SDS_P1;SDS_P2;PMS_P1;PMS_P2;Temp;Humidity;BMP_temperature;BMP_pressure;BME280_temperature;BME280_humidity;BME280_pressure;Samples;Min_cycle;Max_cycle;Signal;HPM_P1;HPM_P2
2021/12/02 00:01:42;;;;;;;0.40;0.30;;;;;;;6.15;78.31;98133.81;5080214;28;20445;-81
2021/12/02 00:04:08;;;;;;;0.40;0.30;;;;;;;6.08;77.36;98130.91;5082418;28;20445;-81
2021/12/02 00:06:36;;;;;;;0.40;0.30;;;;;;;6.12;76.86;98142.56;5080312;28;20480;-80
2021/12/02 00:09:03;;;;;;;0.40;0.30;;;;;;;6.14;76.96;98153.75;5080227;28;20453;-81
2021/12/02 00:11:30;;;;;;;0.40;0.20;;;;;;;6.14;76.63;98148.38;5080947;28;20489;-81
2021/12/02 00:14:01;;;;;;;0.40;0.20;;;;;;;6.19;76.71;98140.09;5084006;28;20429;-81
2021/12/02 00:16:33;;;;;;;0.40;0.30;;;;;;;6.19;77.43;98168.88;5084377;28;20479;-80
2021/12/02 00:21:50;;;;;;;0.40;0.30;;;;;;;6.20;74.14;98171.25;5080305;28;20797;-82
2021/12/02 00:24:18;;;;;;;0.40;0.30;;;;;;;6.24;75.82;98185.59;5083420;28;20855;-82
2021/12/02 00:26:46;;;;;;;0.40;0.20;;;;;;;6.28;74.20;98197.22;5083410;28;20457;-82
2021/12/02 00:29:18;;;;;;;0.40;0.30;;;;;;;6.25;76.95;98216.72;5082181;28;20441;-82
2021/12/02 00:31:46;;;;;;;0.40;0.30;;;;;;;5.92;82.87;98218.59;5081308;28;20503;-81
2021/12/02 00:34:13;;;;;;;0.40;0.30;;;;;;;5.48;89.89;98244.94;5079713;28;20918;-81
2021/12/02 00:36:40;;;;;;;0.40;0.30;;;;;;;4.99;94.14;98266.78;5078193;28;20445;-81
2021/12/02 00:39:10;;;;;;;0.40;0.20;;;;;;;4.67;96.81;98264.69;5078962;28;20452;-81
2021/12/02 00:41:37;;;;;;;0.40;0.20;;;;;;;4.44;99.32;98258.72;5079698;28;20434;-83
2021/12/02 00:44:03;;;;;;;0.40;0.30;;;;;;;4.21;100.00;98261.59;5079871;28;20516;-83
2021/12/02 00:46:32;;;;;;;0.40;0.20;;;;;;;4.10;100.00;98262.22;5079538;28;20453;-84
2021/12/02 00:49:02;;;;;;;0.40;0.30;;;;;;;4.03;100.00;98284.91;5079494;28;20434;-83
2021/12/02 00:51:29;;;;;;;0.40;0.30;;;;;;;3.94;100.00;98273.41;5080411;28;20485;-84
2021/12/02 00:53:59;;;;;;;0.40;0.20;;;;;;;3.87;100.00;98296.38;5079885;28;20941;-83
2021/12/02 00:56:27;;;;;;;0.40;0.30;;;;;;;3.82;100.00;98296.53;5080048;28;20814;-81
2021/12/02 00:58:56;;;;;;;0.40;0.30;;;;;;;3.79;100.00;98322.03;5080064;28;20437;-82
2021/12/02 01:01:24;;;;;;;1.37;1.27;;;;;;;3.69;100.00;98295.56;5079540;28;20430;-83
2021/12/02 01:03:57;;;;;;;0.40;0.30;;;;;;;3.65;100.00;98276.66;5080089;28;20441;-82
2021/12/02 01:06:24;;;;;;;0.40;0.30;;;;;;;3.61;100.00;98270.34;5079352;28;20465;-82
2021/12/02 01:08:51;;;;;;;0.40;0.30;;;;;;;3.58;100.00;98284.34;5081600;28;20472;-82
2021/12/02 01:11:18;;;;;;;0.40;0.30;;;;;;;3.57;100.00;98303.41;5081441;28;20481;-82
2021/12/02 01:13:45;;;;;;;0.40;0.30;;;;;;;3.55;99.18;98314.44;5080176;28;20434;-82
2021/12/02 01:16:12;;;;;;;0.40;0.30;;;;;;;3.62;96.55;98285.31;5083321;28;20476;-81
2021/12/02 01:18:38;;;;;;;0.40;0.20;;;;;;;3.67;97.71;98279.03;5087216;28;20527;-80
2021/12/02 01:21:06;;;;;;;0.40;0.30;;;;;;;3.77;95.37;98311.66;5078527;28;20926;-81
2021/12/02 01:23:34;;;;;;;0.40;0.30;;;;;;;3.88;93.21;98314.03;5079373;28;20434;-81
2021/12/02 01:26:03;;;;;;;0.40;0.30;;;;;;;3.91;92.29;98319.56;5080828;28;20523;-80
2021/12/02 01:28:31;;;;;;;0.40;0.30;;;;;;;4.05;90.01;98324.75;5078465;28;20461;-81
2021/12/02 01:30:58;;;;;;;0.40;0.30;;;;;;;4.14;89.72;98322.88;5079491;28;20488;-80
2021/12/02 01:33:27;;;;;;;0.40;0.30;;;;;;;4.16;88.77;98318.00;5079387;28;20441;-81
2021/12/02 01:35:57;;;;;;;0.40;0.30;;;;;;;4.14;87.33;98322.88;5080581;28;20845;-80
2021/12/02 01:38:26;;;;;;;0.40;0.20;;;;;;;4.18;86.58;98323.03;5080342;28;20429;-81
2021/12/02 01:40:54;;;;;;;0.40;0.20;;;;;;;4.21;84.22;98328.56;5078961;28;20441;-80
2021/12/02 01:43:23;;;;;;;0.40;0.30;;;;;;;4.21;82.88;98327.78;5085416;28;20953;-79
2021/12/02 01:45:49;;;;;;;0.40;0.30;;;;;;;4.22;82.79;98335.50;5084587;28;20465;-81
2021/12/02 01:48:25;;;;;;;0.40;0.30;;;;;;;4.23;81.48;98334.38;5075002;28;20450;-80
2021/12/02 01:51:01;;;;;;;0.40;0.30;;;;;;;4.23;82.02;98326.34;5074777;28;20469;-81
2021/12/02 01:53:32;;;;;;;0.40;0.30;;;;;;;4.20;81.38;98321.63;5075417;28;20429;-80
2021/12/02 01:56:09;;;;;;;0.40;0.30;;;;;;;4.22;82.47;98324.00;5075497;28;20453;-80
2021/12/02 01:58:42;;;;;;;0.40;0.30;;;;;;;4.23;83.17;98330.94;5075758;28;20524;-80
2021/12/02 02:01:14;;;;;;;0.40;0.30;;;;;;;4.27;82.09;98321.16;5075873;28;20468;-81
2021/12/02 02:03:41;;;;;;;0.40;0.20;;;;;;;4.27;83.31;98337.22;5076264;28;20940;-80
2021/12/02 02:06:09;;;;;;;0.40;0.20;;;;;;;4.28;82.05;98318.16;5076006;28;20497;-82
2021/12/02 02:08:43;;;;;;;0.40;0.20;;;;;;;4.29;82.83;98322.44;5076621;28;20437;-82
2021/12/02 02:11:10;;;;;;;0.40;0.30;;;;;;;4.28;82.09;98323.50;5076328;28;20482;-81
2021/12/02 02:13:37;;;;;;;0.40;0.30;;;;;;;4.28;82.67;98330.75;5076527;28;20442;-81
2021/12/02 02:16:04;;;;;;;0.40;0.30;;;;;;;4.28;82.49;98326.19;5076639;28;20465;-81
2021/12/02 02:18:30;;;;;;;0.40;0.30;;;;;;;4.29;83.10;98343.06;5077016;28;20441;-82
2021/12/02 02:21:00;;;;;;;0.40;0.27;;;;;;;4.26;83.46;98341.81;5076186;28;20453;-81
2021/12/02 02:23:29;;;;;;;0.40;0.30;;;;;;;4.23;84.96;98352.38;5076467;28;20441;-81
2021/12/02 02:25:55;;;;;;;0.40;0.27;;;;;;;4.26;86.44;98363.25;5075456;28;21025;-80
2021/12/02 02:28:22;;;;;;;0.40;0.30;;;;;;;4.21;88.40;98359.94;5076301;28;20448;-81
2021/12/02 02:30:48;;;;;;;0.40;0.30;;;;;;;4.19;88.84;98368.28;5076149;28;20441;-81
2021/12/02 02:33:17;;;;;;;0.40;0.30;;;;;;;4.18;89.31;98366.69;5076293;28;20480;-80
2021/12/02 02:35:44;;;;;;;0.40;0.20;;;;;;;4.16;89.53;98376.94;5075459;28;20469;-81
2021/12/02 02:38:14;;;;;;;0.40;0.30;;;;;;;4.17;89.98;98385.78;5076308;28;20449;-80
2021/12/02 02:40:43;;;;;;;0.40;0.20;;;;;;;4.15;90.05;98372.66;5076057;28;20449;-81
2021/12/02 02:43:10;;;;;;;0.40;0.20;;;;;;;4.15;89.21;98380.72;5075845;28;20455;-81
2021/12/02 02:45:37;;;;;;;0.40;0.20;;;;;;;4.20;88.53;98369.06;5075788;28;20465;-81
2021/12/02 02:48:05;;;;;;;0.40;0.20;;;;;;;4.20;89.61;98388.59;5075827;28;20449;-82
2021/12/02 02:50:33;;;;;;;0.40;0.20;;;;;;;4.22;89.28;98386.41;5075984;28;20440;-81
2021/12/02 02:53:06;;;;;;;0.40;0.20;;;;;;;4.25;89.36;98383.09;5076141;28;20508;-81
2021/12/02 02:55:35;;;;;;;0.40;0.30;;;;;;;4.28;87.90;98395.84;5076163;28;20489;-79
2021/12/02 02:58:06;;;;;;;0.40;0.30;;;;;;;4.29;86.49;98384.06;5076094;28;20440;-81
2021/12/02 03:00:34;;;;;;;0.40;0.30;;;;;;;4.35;86.43;98390.06;5074552;28;21013;-81
2021/12/02 03:03:16;;;;;;;0.40;0.27;;;;;;;4.36;86.76;98394.31;5075674;28;20445;-80
2021/12/02 03:05:54;;;;;;;0.40;0.20;;;;;;;4.37;86.53;98395.09;5075955;28;20900;-81
2021/12/02 03:08:30;;;;;;;0.40;0.30;;;;;;;4.39;84.68;98404.41;5076076;28;20434;-81
2021/12/02 03:10:59;;;;;;;0.40;0.20;;;;;;;4.42;84.97;98409.13;5075591;28;20441;-79
2021/12/02 03:13:36;;;;;;;0.40;0.30;;;;;;;4.44;85.18;98411.50;5076082;28;20538;-81
2021/12/02 03:18:51;;;;;;;0.40;0.30;;;;;;;4.43;86.40;98415.28;5075918;28;20595;-80
2021/12/02 03:21:18;;;;;;;0.40;0.30;;;;;;;4.41;85.12;98433.56;5076213;28;20495;-81
2021/12/02 03:23:49;;;;;;;0.40;0.20;;;;;;;4.37;86.34;98424.56;5076009;28;20832;-80
2021/12/02 03:26:17;;;;;;;0.40;0.30;;;;;;;4.35;86.79;98440.19;5076068;28;20472;-81
2021/12/02 03:28:43;;;;;;;0.40;0.30;;;;;;;4.31;87.58;98445.38;5076325;28;20445;-80
2021/12/02 03:31:10;;;;;;;0.40;0.20;;;;;;;4.26;88.56;98438.28;5075256;28;20457;-81
2021/12/02 03:33:37;;;;;;;0.40;0.20;;;;;;;4.28;88.39;98437.94;5075836;28;20434;-81
2021/12/02 03:36:04;;;;;;;0.40;0.30;;;;;;;4.28;88.61;98437.94;5075473;28;20453;-81
2021/12/02 03:38:30;;;;;;;0.40;0.30;;;;;;;4.24;88.46;98437.00;5075572;28;20460;-79
2021/12/02 03:40:57;;;;;;;0.40;0.30;;;;;;;4.27;88.37;98453.25;5075962;28;20445;-80
2021/12/02 03:43:27;;;;;;;0.40;0.30;;;;;;;4.24;88.99;98445.03;5075626;28;20942;-79
2021/12/02 03:45:53;;;;;;;0.40;0.20;;;;;;;4.26;88.94;98446.31;5075652;28;20470;-82
2021/12/02 03:48:21;;;;;;;0.40;0.20;;;;;;;4.23;88.79;98459.53;5076070;28;20603;-80
2021/12/02 03:50:47;;;;;;;0.40;0.30;;;;;;;4.23;88.66;98454.97;5075320;28;20437;-79
2021/12/02 03:53:13;;;;;;;0.40;0.23;;;;;;;4.22;89.34;98456.06;5075979;28;20489;-81
2021/12/02 03:55:40;;;;;;;0.40;0.20;;;;;;;4.23;89.74;98433.53;5075834;28;20836;-80
2021/12/02 03:58:06;;;;;;;0.40;0.20;;;;;;;4.24;89.83;98467.25;5076224;28;20457;-80
2021/12/02 04:00:34;;;;;;;0.40;0.30;;;;;;;4.23;89.08;98456.84;5076226;28;21012;-81
2021/12/02 04:03:01;;;;;;;0.40;0.30;;;;;;;4.21;90.00;98467.91;5075851;28;20445;-80
2021/12/02 04:05:27;;;;;;;0.40;0.30;;;;;;;4.19;89.20;98470.06;5075342;28;20449;-81
2021/12/02 04:07:54;;;;;;;0.40;0.30;;;;;;;4.17;88.94;98469.63;5075932;28;20416;-80
2021/12/02 04:10:22;;;;;;;0.40;0.30;;;;;;;4.12;88.92;98464.41;5076727;28;20460;-81
2021/12/02 04:12:54;;;;;;;0.40;0.30;;;;;;;4.09;88.97;98470.38;5080724;28;20491;-81
2021/12/02 04:15:24;;;;;;;0.40;0.27;;;;;;;4.10;88.27;98473.84;5080478;28;20444;-80
2021/12/02 04:17:52;;;;;;;0.40;0.20;;;;;;;4.03;88.38;98476.97;5080775;28;20475;-81
2021/12/02 04:20:21;;;;;;;0.40;0.30;;;;;;;4.04;88.89;98502.66;5080682;28;20429;-81
2021/12/02 04:22:48;;;;;;;0.40;0.30;;;;;;;3.97;89.23;98492.38;5080262;28;20437;-81
2021/12/02 04:25:16;;;;;;;0.40;0.30;;;;;;;3.97;89.30;98495.06;5080805;28;20437;-80
2021/12/02 04:27:44;;;;;;;0.40;0.20;;;;;;;3.95;89.16;98497.25;5093875;28;20433;-80
2021/12/02 04:30:13;;;;;;;0.40;0.30;;;;;;;3.94;89.48;98502.91;5091358;28;20950;-81
2021/12/02 04:32:40;;;;;;;0.40;0.20;;;;;;;3.91;88.95;98516.94;5079293;28;20477;-81
2021/12/02 04:35:11;;;;;;;0.40;0.30;;;;;;;3.85;88.70;98518.16;5078879;28;20433;-80
2021/12/02 04:37:37;;;;;;;0.40;0.20;;;;;;;3.85;88.68;98524.31;5078829;28;20461;-80
2021/12/02 04:40:05;;;;;;;0.40;0.30;;;;;;;3.83;87.85;98515.78;5077783;28;20441;-80
2021/12/02 04:42:32;;;;;;;0.40;0.30;;;;;;;3.80;88.24;98533.25;5078108;28;20434;-80
2021/12/02 04:44:58;;;;;;;0.40;0.20;;;;;;;3.79;88.11;98520.97;5077817;28;20454;-80
2021/12/02 04:47:25;;;;;;;0.40;0.20;;;;;;;3.76;88.44;98536.84;5078086;28;20456;-80
2021/12/02 04:49:51;;;;;;;0.40;0.30;;;;;;;3.76;88.22;98548.38;5077725;28;20437;-80
2021/12/02 04:52:19;;;;;;;0.40;0.20;;;;;;;3.76;88.01;98553.72;5077687;28;20488;-80
2021/12/02 04:54:46;;;;;;;0.40;0.30;;;;;;;3.77;87.62;98557.19;5078117;28;20468;-81
2021/12/02 04:57:12;;;;;;;0.40;0.20;;;;;;;3.75;86.33;98570.88;5077159;28;20464;-80
2021/12/02 04:59:39;;;;;;;0.40;0.20;;;;;;;3.75;86.07;98576.22;5077274;28;20437;-80
2021/12/02 05:02:05;;;;;;;0.40;0.30;;;;;;;3.74;85.32;98563.94;5076996;28;20787;-80
2021/12/02 05:04:32;;;;;;;0.40;0.30;;;;;;;3.72;85.56;98579.53;5077281;28;20456;-81
2021/12/02 05:06:58;;;;;;;0.40;0.20;;;;;;;3.76;85.83;98585.84;5076922;28;20473;-80
2021/12/02 05:09:27;;;;;;;0.40;0.20;;;;;;;3.71;86.14;98587.84;5076607;28;20441;-80
2021/12/02 05:11:53;;;;;;;0.40;0.30;;;;;;;3.68;86.47;98575.09;5076865;28;20496;-81
2021/12/02 05:14:20;;;;;;;0.40;0.27;;;;;;;3.65;87.79;98592.53;5076293;28;20837;-81
2021/12/02 05:16:46;;;;;;;0.40;0.30;;;;;;;3.67;87.55;98589.53;5076409;28;20472;-81
2021/12/02 05:19:13;;;;;;;0.40;0.20;;;;;;;3.67;86.87;98597.56;5076441;28;20441;-81
2021/12/02 05:21:39;;;;;;;0.40;0.30;;;;;;;3.63;87.36;98601.94;5076408;28;20441;-81
2021/12/02 05:24:06;;;;;;;0.40;0.30;;;;;;;3.58;87.86;98594.84;5075111;28;20951;-81
2021/12/02 05:26:34;;;;;;;0.40;0.30;;;;;;;3.63;87.57;98600.09;5075880;28;20453;-80
2021/12/02 05:29:01;;;;;;;0.40;0.30;;;;;;;3.59;86.69;98611.72;5075676;28;20436;-80
2021/12/02 05:31:27;;;;;;;0.40;0.27;;;;;;;3.58;86.07;98610.88;5075518;28;20429;-80
2021/12/02 05:33:54;;;;;;;0.40;0.30;;;;;;;3.51;86.15;98627.38;5076196;28;21001;-80
2021/12/02 05:36:20;;;;;;;0.40;0.20;;;;;;;3.51;85.45;98621.25;5076622;28;20465;-82
2021/12/02 05:38:47;;;;;;;0.40;0.20;;;;;;;3.51;85.54;98627.38;5078508;28;20838;-81
2021/12/02 05:41:14;;;;;;;0.40;0.20;;;;;;;3.52;84.18;98634.31;5078832;28;20445;-80
2021/12/02 05:43:42;;;;;;;0.40;0.30;;;;;;;3.52;84.01;98637.00;5078481;28;20437;-81
2021/12/02 05:46:09;;;;;;;0.40;0.30;;;;;;;3.52;84.11;98644.22;5079188;28;20453;-81
2021/12/02 05:48:35;;;;;;;0.40;0.30;;;;;;;3.56;84.12;98665.84;5079043;28;20810;-81
2021/12/02 05:51:02;;;;;;;0.40;0.30;;;;;;;3.53;83.15;98656.50;5079273;28;20449;-81
2021/12/02 05:53:28;;;;;;;0.40;0.30;;;;;;;3.56;84.42;98677.34;5078938;28;20859;-82
2021/12/02 05:55:55;;;;;;;0.40;0.20;;;;;;;3.59;83.10;98674.06;5080063;28;21005;-81
2021/12/02 05:58:21;;;;;;;0.40;0.30;;;;;;;3.50;83.86;98678.56;5083633;28;20441;-81
2021/12/02 06:00:50;;;;;;;0.40;0.30;;;;;;;3.57;83.19;98678.91;5080834;28;20436;-81
2021/12/02 06:03:16;;;;;;;0.40;0.30;;;;;;;3.64;82.66;98689.22;5076594;28;20446;-81
2021/12/02 06:05:44;;;;;;;0.40;0.20;;;;;;;3.67;82.49;98673.31;5076431;28;20994;-80
2021/12/02 06:08:11;;;;;;;0.40;0.30;;;;;;;3.70;82.71;98698.72;5076743;28;20480;-81
2021/12/02 06:10:37;;;;;;;0.40;0.20;;;;;;;3.67;82.67;98699.31;5076784;28;20441;-81
2021/12/02 06:13:04;;;;;;;0.40;0.30;;;;;;;3.68;83.49;98696.34;5075952;28;20512;-81
2021/12/02 06:15:30;;;;;;;0.40;0.30;;;;;;;3.64;83.13;98698.03;5076028;28;20434;-82
2021/12/02 06:17:58;;;;;;;0.40;0.30;;;;;;;3.61;82.93;98709.34;5075926;28;20466;-80
2021/12/02 06:20:24;;;;;;;0.40;0.27;;;;;;;3.60;82.95;98705.09;5076726;28;20819;-81
2021/12/02 06:22:51;;;;;;;0.40;0.30;;;;;;;3.59;83.67;98713.44;5076501;28;20441;-82
2021/12/02 06:27:58;;;;;;;0.40;0.20;;;;;;;3.49;83.80;98739.28;5075213;28;20437;-81
2021/12/02 06:30:27;;;;;;;0.40;0.30;;;;;;;3.45;84.28;98734.84;5076547;28;20445;-81
2021/12/02 06:32:53;;;;;;;0.50;0.50;;;;;;;3.48;84.89;98756.44;5076283;28;20481;-82
2021/12/02 06:35:21;;;;;;;0.40;0.30;;;;;;;3.50;85.98;98748.13;5076484;28;20445;-80
2021/12/02 06:37:48;;;;;;;0.40;0.30;;;;;;;3.51;85.11;98753.19;5076541;28;20445;-81
2021/12/02 06:40:15;;;;;;;0.40;0.20;;;;;;;3.51;85.07;98760.41;5076532;28;20805;-82
2021/12/02 06:42:42;;;;;;;0.40;0.30;;;;;;;3.43;84.96;98750.41;5076332;28;20445;-82
2021/12/02 06:45:10;;;;;;;0.40;0.20;;;;;;;3.44;85.42;98757.34;5076359;28;20438;-82
2021/12/02 06:47:38;;;;;;;0.40;0.30;;;;;;;3.44;84.80;98757.34;5076506;28;20863;-82
2021/12/02 06:50:09;;;;;;;0.40;0.30;;;;;;;3.43;85.53;98761.13;5076737;28;20483;-82
2021/12/02 06:52:37;;;;;;;0.40;0.20;;;;;;;3.36;84.29;98761.50;5077749;28;20485;-82
2021/12/02 06:55:05;;;;;;;0.40;0.30;;;;;;;3.28;84.35;98772.94;5077093;28;20438;-82
2021/12/02 06:57:31;;;;;;;0.40;0.27;;;;;;;3.30;84.91;98773.41;5077160;28;20474;-81
2021/12/02 07:00:01;;;;;;;0.40;0.30;;;;;;;3.28;84.65;98779.06;5076727;28;20449;-81
2021/12/02 07:02:29;;;;;;;0.40;0.30;;;;;;;3.25;85.63;98774.31;5076721;28;20829;-81
2021/12/02 07:04:58;;;;;;;0.40;0.30;;;;;;;3.21;85.67;98794.72;5079335;28;20460;-81
2021/12/02 07:07:26;;;;;;;0.40;0.30;;;;;;;3.23;84.73;98791.72;5091566;28;20458;-81
2021/12/02 07:09:55;;;;;;;0.40;0.30;;;;;;;3.26;84.68;98805.31;5087151;28;20835;-81
2021/12/02 07:12:29;;;;;;;0.40;0.30;;;;;;;3.25;84.94;98814.44;5075548;28;20535;-81
2021/12/02 07:14:57;;;;;;;0.40;0.30;;;;;;;3.21;84.97;98813.44;5075327;28;20468;-81
2021/12/02 07:17:23;;;;;;;0.40;0.20;;;;;;;3.22;84.74;98823.03;5075130;28;20552;-81
2021/12/02 07:19:50;;;;;;;0.40;0.30;;;;;;;3.27;83.89;98825.63;5075861;28;20453;-82
2021/12/02 07:22:16;;;;;;;0.40;0.20;;;;;;;3.28;84.42;98831.78;5075462;28;20448;-81
2021/12/02 07:24:43;;;;;;;0.40;0.30;;;;;;;3.31;83.56;98841.09;5075861;28;20434;-81
2021/12/02 07:27:10;;;;;;;0.40;0.23;;;;;;;3.32;83.29;98856.03;5075441;28;20457;-82
2021/12/02 07:29:39;;;;;;;0.40;0.27;;;;;;;3.26;82.86;98844.66;5075578;28;20472;-81
2021/12/02 07:32:07;;;;;;;0.40;0.30;;;;;;;3.26;82.42;98839.28;5075386;28;21068;-82
2021/12/02 07:34:37;;;;;;;0.40;0.30;;;;;;;3.26;82.38;98850.78;5075707;28;20456;-81
2021/12/02 07:37:04;;;;;;;0.40;0.20;;;;;;;3.29;81.56;98852.88;5075978;28;20472;-81
2021/12/02 07:39:30;;;;;;;0.40;0.30;;;;;;;3.30;82.93;98853.69;5075638;28;20456;-82
2021/12/02 07:41:57;;;;;;;0.40;0.30;;;;;;;3.35;81.30;98858.94;5075118;28;20456;-81
2021/12/02 07:44:26;;;;;;;0.40;0.20;;;;;;;3.35;81.75;98852.78;5075227;28;20445;-82
2021/12/02 07:46:52;;;;;;;0.40;0.20;;;;;;;3.38;81.90;98854.88;5077280;28;20469;-81
2021/12/02 07:49:19;;;;;;;0.40;0.20;;;;;;;3.35;81.82;98860.81;5078919;28;20433;-82
2021/12/02 07:51:50;;;;;;;0.40;0.30;;;;;;;3.36;80.90;98876.56;5079229;28;20445;-82
2021/12/02 07:54:18;;;;;;;0.40;0.30;;;;;;;3.30;81.82;98872.41;5078659;28;20480;-81
2021/12/02 07:56:47;;;;;;;0.40;0.27;;;;;;;3.34;81.40;98877.97;5078794;28;20465;-82
2021/12/02 07:59:17;;;;;;;0.40;0.27;;;;;;;3.38;82.07;98878.97;5078391;28;20443;-81
2021/12/02 08:01:45;;;;;;;0.40;0.30;;;;;;;3.39;82.41;98888.56;5078253;28;20813;-81
2021/12/02 08:04:11;;;;;;;0.40;0.20;;;;;;;3.39;81.71;98901.94;5079018;28;20459;-81
2021/12/02 08:06:38;;;;;;;0.40;0.20;;;;;;;3.40;82.29;98893.63;5080879;28;20484;-80
2021/12/02 08:09:06;;;;;;;0.40;0.30;;;;;;;3.46;82.45;98910.41;5084647;28;20439;-79
2021/12/02 08:11:33;;;;;;;0.40;0.30;;;;;;;3.44;80.32;98910.69;5083122;28;20931;-78
2021/12/02 08:13:59;;;;;;;0.40;0.30;;;;;;;3.46;80.41;98910.41;5084264;28;20481;-79
2021/12/02 08:16:26;;;;;;;0.40;0.30;;;;;;;3.34;81.00;98907.41;5083705;28;20461;-80
2021/12/02 08:18:54;;;;;;;0.40;0.30;;;;;;;3.34;80.47;98910.06;5083005;28;20448;-80
2021/12/02 08:21:21;;;;;;;0.40;0.20;;;;;;;3.36;80.86;98918.59;5081979;28;20465;-81
2021/12/02 08:23:47;;;;;;;0.40;0.30;;;;;;;3.36;81.03;98934.63;5080952;28;20447;-81
2021/12/02 08:26:16;;;;;;;0.40;0.30;;;;;;;3.32;80.64;98944.34;5079877;28;20789;-80
2021/12/02 08:28:42;;;;;;;0.40;0.30;;;;;;;3.26;80.83;98957.81;5079297;28;20433;-79
2021/12/02 08:31:09;;;;;;;0.40;0.20;;;;;;;3.27;79.30;98943.34;5080392;28;20810;-81
2021/12/02 08:33:36;;;;;;;0.40;0.20;;;;;;;3.21;78.67;98968.59;5078881;28;20842;-81
2021/12/02 08:36:04;;;;;;;0.40;0.30;;;;;;;3.19;79.38;98960.09;5079522;28;20547;-80
2021/12/02 08:38:33;;;;;;;0.40;0.30;;;;;;;3.19;79.65;98975.34;5078539;28;20452;-79
2021/12/02 08:40:59;;;;;;;0.40;0.30;;;;;;;3.10;78.61;98985.91;5078636;28;20445;-81
2021/12/02 08:43:28;;;;;;;0.40;0.30;;;;;;;3.11;78.84;98984.81;5078690;28;20840;-80
2021/12/02 08:45:55;;;;;;;0.40;0.30;;;;;;;3.13;78.80;98984.50;5078074;28;20457;-80
2021/12/02 08:48:21;;;;;;;0.40;0.30;;;;;;;3.13;79.09;98989.88;5077960;28;20511;-80
2021/12/02 08:50:48;;;;;;;0.40;0.30;;;;;;;3.11;78.73;98998.19;5079282;28;20464;-80
2021/12/02 08:53:16;;;;;;;0.40;0.20;;;;;;;3.16;78.56;98998.09;5078438;28;20489;-81
2021/12/02 08:55:43;;;;;;;0.40;0.30;;;;;;;3.19;77.88;99000.22;5078309;28;20445;-83
2021/12/02 08:58:10;;;;;;;0.40;0.20;;;;;;;3.20;77.79;99001.78;5075661;28;20538;-81
2021/12/02 09:00:39;;;;;;;0.40;0.30;;;;;;;3.17;77.70;99006.94;5077578;28;20468;-80
2021/12/02 09:03:08;;;;;;;0.40;0.30;;;;;;;3.11;77.46;99016.13;5077094;28;20502;-80
2021/12/02 09:05:36;;;;;;;0.40;0.30;;;;;;;3.16;76.57;99006.13;5076242;28;20453;-81
2021/12/02 09:08:03;;;;;;;0.40;0.20;;;;;;;3.14;76.92;99024.34;5076978;28;20433;-80
2021/12/02 09:10:31;;;;;;;0.40;0.30;;;;;;;3.11;76.79;99018.81;5075944;28;20434;-81
2021/12/02 09:12:58;;;;;;;0.40;0.20;;;;;;;3.09;76.72;99032.44;5075989;28;20486;-81
2021/12/02 09:15:25;;;;;;;0.40;0.20;;;;;;;3.07;77.58;99034.63;5076135;28;20791;-81
2021/12/02 09:17:51;;;;;;;0.40;0.30;;;;;;;3.00;76.36;99028.84;5077047;28;20448;-81
2021/12/02 09:20:19;;;;;;;0.40;0.30;;;;;;;3.06;76.28;99040.28;5079251;28;20450;-81
2021/12/02 09:22:47;;;;;;;0.40;0.30;;;;;;;3.06;74.87;99033.03;5078889;28;20452;-79
2021/12/02 09:25:16;;;;;;;0.40;0.30;;;;;;;3.04;74.70;99040.53;5078711;28;20445;-80
2021/12/02 09:27:44;;;;;;;0.40;0.30;;;;;;;3.06;73.57;99042.94;5078909;28;20942;-81
2021/12/02 09:30:11;;;;;;;0.40;0.30;;;;;;;3.01;74.02;99049.97;5079332;28;20815;-81
2021/12/02 09:32:38;;;;;;;0.40;0.20;;;;;;;3.07;74.39;99047.22;5080780;28;20437;-81
2021/12/02 09:35:07;;;;;;;0.40;0.30;;;;;;;3.12;74.34;99053.28;5078881;28;20473;-80
2021/12/02 09:37:33;;;;;;;0.40;0.20;;;;;;;3.15;74.16;99047.34;5078848;28;20477;-81
2021/12/02 09:40:00;;;;;;;0.40;0.20;;;;;;;3.20;73.86;99060.66;5081064;28;20468;-80
2021/12/02 09:42:27;;;;;;;0.40;0.30;;;;;;;3.26;73.00;99054.13;5082343;28;20434;-81
2021/12/02 09:44:59;;;;;;;0.40;0.30;;;;;;;3.26;72.07;99067.50;5084975;28;20445;-82
2021/12/02 09:47:28;;;;;;;0.40;0.30;;;;;;;3.23;72.07;99062.75;5092439;28;20491;-80
2021/12/02 09:49:54;;;;;;;0.40;0.20;;;;;;;3.25;71.75;99057.91;5093689;28;20458;-80
2021/12/02 09:52:29;;;;;;;0.40;0.30;;;;;;;3.26;73.01;99064.84;5078783;28;20475;-82
2021/12/02 09:54:59;;;;;;;0.40;0.30;;;;;;;3.31;71.69;99063.16;5077585;28;20567;-81
2021/12/02 09:57:33;;;;;;;0.40;0.30;;;;;;;3.32;71.74;99048.69;5077596;28;20472;-80
2021/12/02 10:00:01;;;;;;;0.40;0.20;;;;;;;3.35;71.71;99061.50;5078469;28;20432;-80
2021/12/02 10:02:27;;;;;;;0.40;0.30;;;;;;;3.32;72.01;99068.25;5078163;28;20945;-81
2021/12/02 10:04:57;;;;;;;0.40;0.30;;;;;;;3.29;71.44;99063.47;5078065;28;20437;-81
2021/12/02 10:07:29;;;;;;;0.40;0.20;;;;;;;3.34;71.28;99071.41;5077456;28;20469;-80
2021/12/02 10:10:03;;;;;;;0.40;0.20;;;;;;;3.36;70.59;99079.16;5056299;28;20500;-80
2021/12/02 10:12:33;;;;;;;0.40;0.30;;;;;;;3.33;72.38;99066.38;5057307;28;20431;-80
2021/12/02 10:15:02;;;;;;;0.40;0.20;;;;;;;3.34;71.96;99078.66;5057283;28;20486;-80
2021/12/02 10:17:35;;;;;;;0.40;0.30;;;;;;;3.38;71.51;99072.44;5058449;28;20492;-81
2021/12/02 10:20:24;;;;;;;0.40;0.30;;;;;;;3.46;71.70;99073.66;5056774;28;20522;-80
2021/12/02 10:23:11;;;;;;;0.40;0.30;;;;;;;3.51;72.74;99071.69;5057159;28;20477;-80
2021/12/02 10:25:38;;;;;;;0.40;0.30;;;;;;;3.53;71.43;99074.84;5056999;28;20508;-81
2021/12/02 10:28:06;;;;;;;0.40;0.30;;;;;;;3.52;70.79;99075.16;5058080;28;20441;-81
2021/12/02 10:30:41;;;;;;;0.40;0.30;;;;;;;3.54;71.95;99081.00;5061159;28;20819;-81
2021/12/02 10:33:09;;;;;;;0.40;0.30;;;;;;;3.61;71.69;99086.00;5058382;28;20430;-81
2021/12/02 10:35:41;;;;;;;0.40;0.30;;;;;;;3.64;70.95;99088.91;5058944;28;20454;-81
2021/12/02 10:38:08;;;;;;;0.40;0.30;;;;;;;3.70;70.18;99094.97;5058826;28;20473;-80
2021/12/02 10:40:36;;;;;;;0.40;0.30;;;;;;;3.69;69.97;99086.13;5059374;28;20457;-80
2021/12/02 10:43:07;;;;;;;0.40;0.30;;;;;;;3.60;70.20;99095.91;5057105;28;20458;-80
2021/12/02 10:45:35;;;;;;;0.40;0.30;;;;;;;3.58;69.52;99089.25;5055895;28;20904;-80
2021/12/02 10:48:02;;;;;;;0.40;0.20;;;;;;;3.59;70.02;99091.66;5056385;28;20448;-80
2021/12/02 10:50:37;;;;;;;0.40;0.30;;;;;;;3.65;70.38;99097.72;5056057;28;20454;-80
2021/12/02 10:53:05;;;;;;;0.40;0.30;;;;;;;3.76;70.75;99093.78;5055448;28;20509;-80
2021/12/02 10:55:33;;;;;;;0.40;0.30;;;;;;;3.83;69.41;99106.81;5055634;28;20489;-80
2021/12/02 10:58:02;;;;;;;0.40;0.30;;;;;;;3.83;70.31;99114.84;5054802;28;20492;-80
2021/12/02 11:00:30;;;;;;;0.40;0.20;;;;;;;3.92;68.76;99121.13;5055556;28;20453;-79
2021/12/02 11:03:00;;;;;;;0.40;0.30;;;;;;;3.93;69.13;99125.38;5054922;28;20449;-80
2021/12/02 11:05:29;;;;;;;0.40;0.20;;;;;;;3.92;67.71;99137.97;5055065;28;20818;-80
2021/12/02 11:07:58;;;;;;;0.40;0.20;;;;;;;3.87;68.47;99127.34;5055726;28;20444;-80
2021/12/02 11:10:26;;;;;;;0.40;0.30;;;;;;;3.92;68.23;99129.16;5055527;28;20442;-79
2021/12/02 11:12:55;;;;;;;0.40;0.30;;;;;;;3.95;67.80;99128.56;5055152;28;20803;-80
2021/12/02 11:15:23;;;;;;;0.40;0.30;;;;;;;4.02;68.17;99123.63;5054984;28;20508;-80
2021/12/02 11:17:52;;;;;;;0.40;0.30;;;;;;;4.11;67.81;99132.56;5055324;28;20442;-80
2021/12/02 11:20:23;;;;;;;0.40;0.20;;;;;;;4.22;67.59;99120.59;5053951;28;21077;-79
2021/12/02 11:22:54;;;;;;;0.40;0.30;;;;;;;4.37;67.05;99129.47;5054754;28;20446;-80
2021/12/02 11:25:21;;;;;;;0.40;0.20;;;;;;;4.40;65.68;99140.38;5055160;28;20418;-80
2021/12/02 11:27:50;;;;;;;0.40;0.20;;;;;;;4.40;66.31;99145.75;5055408;28;20935;-80
2021/12/02 11:30:20;;;;;;;0.40;0.30;;;;;;;4.49;65.38;99143.97;5055123;28;20465;-79
2021/12/02 11:32:52;;;;;;;0.40;0.30;;;;;;;4.62;64.57;99134.34;5054748;28;20517;-80
2021/12/02 11:35:27;;;;;;;0.40;0.30;;;;;;;4.83;64.17;99147.38;5054963;28;20467;-80
2021/12/02 11:37:58;;;;;;;0.40;0.30;;;;;;;5.19;64.71;99145.56;5055159;28;20414;-80
2021/12/02 11:40:27;;;;;;;0.40;0.30;;;;;;;5.50;61.93;99155.63;5056334;28;20442;-80
2021/12/02 11:42:55;;;;;;;0.40;0.30;;;;;;;5.66;60.98;99153.38;5060809;28;20959;-82
2021/12/02 11:45:23;;;;;;;0.40;0.30;;;;;;;5.69;59.81;99164.31;5076437;28;20437;-83
2021/12/02 11:47:52;;;;;;;0.40;0.30;;;;;;;5.85;58.91;99159.41;5075576;28;20820;-83
2021/12/02 11:50:23;;;;;;;0.40;0.30;;;;;;;5.95;58.83;99166.47;5076048;28;20442;-82
2021/12/02 11:52:51;;;;;;;0.40;0.30;;;;;;;6.05;57.21;99166.22;5075874;28;20482;-81
2021/12/02 11:55:20;;;;;;;0.40;0.30;;;;;;;6.22;57.80;99174.38;5075779;28;20485;-81